Bookmark and Share
Track history (hours):
 

Seadream 1

Last reported at 2014-Apr-18 23:30 UTC. Time now 2014-Apr-21 03:13 UTC.
Position N 17°59' W 063°31'.

Length 105 m; draft 4.3 m.

Type: Ship. MMSI: 308908000.

NotesDate/timePositionNaut miles runAvg speedWind from/ knotsBaromVisibWave heightAir tempDewpointWater temp
2014-Apr-18 23:30N 17°59' W 063°31'1312.6
2014-Apr-18 22:29N 17°57' W 063°17'1412.5
2014-Apr-18 21:24N 17°56' W 063°03'2 0.1
2014-Apr-17 23:26N 17°57' W 063°03'1011.3
2014-Apr-17 22:31N 18°04' W 063°11'4 3.7
2014-Apr-17 21:18N 18°05' W 063°06'0 0.0
2014-Apr-17 19:25N 18°05' W 063°06'0 0.0
2014-Apr-17 18:11N 18°05' W 063°06'0 0.0
2014-Apr-17 17:09N 18°05' W 063°06'0 0.0
2014-Apr-17 16:18N 18°05' W 063°06'0 0.0
2014-Apr-17 15:31N 18°05' W 063°06'0 0.0
2014-Apr-17 14:21N 18°05' W 063°06'0 0.0
2014-Apr-17 13:27N 18°05' W 063°06'0 0.0
2014-Apr-17 12:24N 18°05' W 063°06'6 3.3
2014-Apr-17 10:34N 18°07' W 063°12'8 7.3
2014-Apr-17 09:25N 18°09' W 063°21'6 7.0
2014-Apr-17 08:33N 18°10' W 063°27'7 7.2
2014-Apr-17 07:32N 18°11' W 063°34'  
2014-Apr-10 05:15N 18°05' W 063°30'811.7
2014-Apr-10 04:33N 18°02' W 063°22'1211.8
2014-Apr-10 03:30N 17°58' W 063°10'  

Dump ship's entire track history

sailing weather and tide predictions

Seadream 1 — C6PW8 — position and weather